Time;durP1;ratioP1;P1;durP2;ratioP2;P2;SDS_P1;SDS_P2;PMS_P1;PMS_P2;Temp;Humidity;BMP_temperature;BMP_pressure;BME280_temperature;BME280_humidity;BME280_pressure;Samples;Min_cycle;Max_cycle;Signal;HPM_P1;HPM_P2
2022/11/08 00:03:28;;;;;;;;;71.33;52.67;;;;;4.79;100.00;100164.19;6302995;20;3636746;-71
2022/11/08 00:14:25;;;;;;;;;84.33;62.00;;;;;4.93;100.00;100163.81;6307111;20;3655517;-71
2022/11/08 00:16:54;;;;;;;;;85.00;61.00;;;;;4.71;100.00;100156.44;6266311;20;3653371;-68
2022/11/08 00:19:24;;;;;;;;;85.67;66.33;;;;;4.88;100.00;100155.94;6304410;20;3669111;-70
2022/11/08 00:21:54;;;;;;;;;89.67;71.67;;;;;4.81;100.00;100157.03;6267762;20;3664832;-71
2022/11/08 00:24:26;;;;;;;;;89.33;67.33;;;;;4.77;100.00;100152.75;6267177;20;3687835;-71
2022/11/08 00:26:56;;;;;;;;;81.33;61.33;;;;;4.62;100.00;100157.59;6271271;20;3637780;-71
2022/11/08 00:29:25;;;;;;;;;87.33;66.00;;;;;4.62;100.00;100162.06;6302208;20;3671224;-69
2022/11/08 00:31:58;;;;;;;;;88.67;68.00;;;;;4.66;100.00;100163.72;6269527;20;3676453;-71
2022/11/08 00:34:28;;;;;;;;;86.33;68.67;;;;;4.58;100.00;100166.59;6271306;20;3668134;-68
2022/11/08 00:36:57;;;;;;;;;79.67;61.00;;;;;4.78;100.00;100159.81;6265585;20;3622164;-70
2022/11/08 00:39:27;;;;;;;;;74.67;56.67;;;;;4.73;100.00;100149.28;6299317;20;2890242;-71
2022/11/08 00:41:57;;;;;;;;;78.00;57.33;;;;;4.54;100.00;100158.75;6301499;20;3681598;-72
2022/11/08 00:44:30;;;;;;;;;78.00;59.00;;;;;4.64;100.00;100156.69;6301844;20;3631517;-70
2022/11/08 00:47:00;;;;;;;;;72.00;56.00;;;;;4.68;100.00;100169.84;6301790;20;3629524;-67
2022/11/08 00:49:30;;;;;;;;;72.33;56.33;;;;;4.59;100.00;100162.16;6302900;20;2870151;-70
2022/11/08 00:51:59;;;;;;;;;70.33;54.00;;;;;4.60;100.00;100167.41;6297566;20;3632633;-69
2022/11/08 00:54:29;;;;;;;;;75.33;56.00;;;;;4.40;100.00;100161.81;6301045;20;3639872;-68
2022/11/08 00:56:58;;;;;;;;;66.67;50.33;;;;;4.36;100.00;100157.50;6298874;20;3625316;-72
2022/11/08 00:59:28;;;;;;;;;69.00;50.33;;;;;4.57;100.00;100163.97;6302321;20;3630601;-70
2022/11/08 01:01:57;;;;;;;;;64.00;46.00;;;;;4.38;100.00;100153.00;6299513;20;3629454;-68
2022/11/08 01:04:27;;;;;;;;;57.00;44.00;;;;;4.30;100.00;100153.22;6300118;20;2862961;-70
2022/11/08 01:06:56;;;;;;;;;62.00;47.00;;;;;4.16;100.00;100158.94;6268236;20;3633730;-67
2022/11/08 01:09:26;;;;;;;;;66.33;46.67;;;;;3.96;100.00;100151.50;6302597;20;2892571;-71
2022/11/08 01:11:55;;;;;;;;;59.00;48.00;;;;;4.14;100.00;100155.44;6299116;20;2851347;-68
2022/11/08 01:14:24;;;;;;;;;65.33;49.00;;;;;3.95;100.00;100143.59;6271247;20;3624239;-70
2022/11/08 01:16:54;;;;;;;;;68.67;51.00;;;;;3.96;100.00;100155.94;6296628;20;3652325;-69
2022/11/08 01:19:23;;;;;;;;;63.33;49.67;;;;;3.99;100.00;100139.06;6298297;20;3631523;-69
2022/11/08 01:21:53;;;;;;;;;65.67;50.33;;;;;4.14;100.00;100146.59;6298475;20;3620065;-71
2022/11/08 01:24:23;;;;;;;;;66.00;51.33;;;;;4.14;100.00;100149.25;6300468;20;2876417;-67
2022/11/08 01:26:53;;;;;;;;;67.67;53.33;;;;;4.36;100.00;100145.06;6300477;20;3620072;-70
2022/11/08 01:29:22;;;;;;;;;68.33;53.00;;;;;4.31;100.00;100141.66;6301282;20;3623155;-70
2022/11/08 01:31:52;;;;;;;;;66.67;52.00;;;;;4.35;100.00;100147.78;6300802;20;3617075;-66
2022/11/08 01:34:21;;;;;;;;;65.33;50.00;;;;;4.20;100.00;100138.44;6303350;20;3632538;-67
2022/11/08 01:36:51;;;;;;;;;66.33;50.33;;;;;4.51;100.00;100133.13;6300502;20;3647184;-71
2022/11/08 01:39:21;;;;;;;;;67.00;53.00;;;;;4.32;100.00;100139.91;6300282;20;3631595;-71
2022/11/08 01:41:50;;;;;;;;;69.00;52.00;;;;;4.34;100.00;100138.03;6300445;20;3649305;-69
2022/11/08 01:44:21;;;;;;;;;62.67;49.67;;;;;4.47;100.00;100139.44;6300110;20;3635694;-68
2022/11/08 01:46:50;;;;;;;;;68.00;51.67;;;;;4.49;100.00;100140.25;6298419;20;3635679;-70
2022/11/08 01:49:38;;;;;;;;;67.67;52.00;;;;;4.64;100.00;100138.94;6301076;20;3631527;-69
2022/11/08 01:52:29;;;;;;;;;65.67;51.00;;;;;4.76;100.00;100137.69;6298253;20;3635986;-69
2022/11/08 01:55:28;;;;;;;;;60.50;49.00;;;;;4.79;100.00;100130.50;6298976;20;2860737;-67
2022/11/08 01:58:09;;;;;;;;;65.00;49.50;;;;;4.82;100.00;100132.22;6267453;20;2874247;-69
2022/11/08 02:00:39;;;;;;;;;60.00;49.00;;;;;4.97;100.00;100131.69;6267493;20;2677490;-70
2022/11/08 02:03:15;;;;;;;;;69.00;51.67;;;;;4.96;100.00;100135.28;6299335;20;3652427;-69
2022/11/08 02:05:46;;;;;;;;;63.33;50.00;;;;;4.98;100.00;100144.09;6301288;20;3633758;-70
2022/11/08 02:08:41;;;;;;;;;58.33;46.67;;;;;4.84;100.00;100135.66;6296835;20;2860730;-67
2022/11/08 02:11:17;;;;;;;;;67.33;51.67;;;;;4.80;100.00;100137.56;6300396;20;3632556;-72
2022/11/08 02:13:44;;;;;;;;;36.00;24.00;;;;;4.74;100.00;100131.53;6298873;20;2829484;-67
2022/11/08 02:16:16;;;;;;;;;65.33;49.67;;;;;4.60;100.00;100130.19;6266663;20;3644141;-69
2022/11/08 02:18:47;;;;;;;;;65.33;50.00;;;;;4.72;100.00;100136.94;6301831;20;2885809;-70
2022/11/08 02:21:37;;;;;;;;;60.67;49.33;;;;;4.66;100.00;100137.13;6299013;20;3616320;-70
2022/11/08 02:24:11;;;;;;;;;59.00;47.00;;;;;4.65;100.00;100134.50;6300838;20;2855595;-68
2022/11/08 02:26:40;;;;;;;;;61.00;47.00;;;;;4.65;100.00;100122.06;6267574;20;2863826;-72
2022/11/08 02:29:35;;;;;;;;;61.67;47.33;;;;;4.75;100.00;100130.66;6267801;20;2874350;-68
2022/11/08 02:32:05;;;;;;;;;59.50;46.50;;;;;4.70;100.00;100127.25;6298154;20;2862830;-68
2022/11/08 02:34:48;;;;;;;;;59.00;46.67;;;;;4.65;100.00;100130.03;6271302;20;2871130;-68
2022/11/08 02:37:20;;;;;;;;;54.33;44.00;;;;;4.78;100.00;100130.53;6298196;20;2863873;-69
2022/11/08 02:39:49;;;;;;;;;57.50;47.00;;;;;4.72;100.00;100117.44;6300659;20;2856555;-69
2022/11/08 02:42:21;;;;;;;;;53.00;44.67;;;;;4.86;100.00;100131.19;6267560;20;2863881;-66
2022/11/08 02:44:50;;;;;;;;;54.00;46.00;;;;;5.11;100.00;100127.72;6299354;20;2747182;-70
2022/11/08 02:47:19;;;;;;;;;56.00;44.67;;;;;4.89;100.00;100128.41;6296918;20;2877492;-70
2022/11/08 02:49:50;;;;;;;;;59.67;44.33;;;;;4.91;100.00;100142.56;6298513;20;3633625;-68
2022/11/08 02:52:19;;;;;;;;;55.00;42.00;;;;;4.94;100.00;100134.47;6300995;20;2868027;-69
2022/11/08 02:54:48;;;;;;;;;52.00;44.00;;;;;5.01;100.00;100133.38;6295922;20;2856591;-70
2022/11/08 02:57:18;;;;;;;;;59.67;44.33;;;;;4.95;100.00;100122.94;6265730;20;2881751;-70
2022/11/08 02:59:48;;;;;;;;;54.00;44.00;;;;;4.96;100.00;100129.09;6299085;20;2843193;-68
2022/11/08 03:02:16;;;;;;;;;53.00;42.00;;;;;4.95;100.00;100127.34;6269538;20;2851481;-68
2022/11/08 03:04:46;;;;;;;;;54.00;41.00;;;;;4.98;100.00;100138.78;6265163;20;2871174;-70
2022/11/08 03:07:16;;;;;;;;;59.00;47.00;;;;;4.89;100.00;100130.22;6298842;20;3649279;-71
2022/11/08 03:09:53;;;;;;;;;61.00;45.33;;;;;4.60;100.00;100129.31;6296723;20;3628411;-70
2022/11/08 03:12:21;;;;;;;;;54.00;44.00;;;;;4.67;100.00;100130.00;6300394;20;2849196;-69
2022/11/08 03:14:51;;;;;;;;;56.67;45.33;;;;;4.48;100.00;100127.03;6264859;20;2863966;-67
2022/11/08 03:17:20;;;;;;;;;62.33;49.67;;;;;4.00;100.00;100127.50;6299059;20;3623241;-71
2022/11/08 03:19:50;;;;;;;;;63.00;49.67;;;;;4.02;100.00;100123.88;6291970;20;2874316;-68
2022/11/08 03:22:20;;;;;;;;;69.67;54.67;;;;;4.32;100.00;100131.94;6299704;20;3636732;-71
2022/11/08 03:24:49;;;;;;;;;76.33;58.33;;;;;4.31;100.00;100136.34;6300411;20;3646151;-71
2022/11/08 03:27:20;;;;;;;;;76.33;58.33;;;;;4.28;100.00;100135.56;6296540;20;3648703;-67
2022/11/08 03:29:49;;;;;;;;;85.00;61.00;;;;;4.13;100.00;100142.19;6298090;20;3646149;-66
2022/11/08 03:32:19;;;;;;;;;70.67;54.00;;;;;4.07;100.00;100134.41;6297179;20;3625341;-69
2022/11/08 03:34:48;;;;;;;;;82.33;57.67;;;;;3.95;100.00;100143.59;6293291;20;3664923;-70
2022/11/08 03:37:22;;;;;;;;;77.33;55.67;;;;;3.88;100.00;100137.56;6298666;20;3632657;-69
2022/11/08 03:39:51;;;;;;;;;100.33;69.33;;;;;3.95;100.00;100144.44;6297788;20;3677349;-70
2022/11/08 03:42:22;;;;;;;;;142.50;108.00;;;;;3.97;100.00;100152.38;6267882;20;4486696;-69
2022/11/08 03:44:52;;;;;;;;;125.33;95.00;;;;;4.04;100.00;100147.78;6263017;20;3699403;-68
2022/11/08 03:47:22;;;;;;;;;200.25;136.75;;;;;4.12;100.00;100151.09;6266407;20;3717022;-69
2022/11/08 03:49:52;;;;;;;;;189.75;147.25;;;;;4.21;100.00;100144.63;6263792;20;4462706;-71
2022/11/08 03:52:22;;;;;;;;;164.25;118.25;;;;;4.13;100.00;100145.75;6264930;20;4487775;-71
2022/11/08 03:54:53;;;;;;;;;148.00;103.50;;;;;4.16;100.00;100145.66;6266331;20;4481482;-69
2022/11/08 03:57:21;;;;;;;;;160.50;119.00;;;;;4.07;100.00;100143.22;6257642;20;1951318;-68
2022/11/08 03:59:52;;;;;;;;;147.75;121.00;;;;;4.21;100.00;100157.91;6265558;20;4468980;-70
2022/11/08 04:02:23;;;;;;;;;142.50;102.75;;;;;4.01;100.00;100155.81;6265562;20;4478432;-70
2022/11/08 04:04:52;;;;;;;;;96.33;85.33;;;;;4.05;100.00;100155.69;6268034;20;3665847;-71
2022/11/08 04:07:22;;;;;;;;;104.67;85.67;;;;;4.17;100.00;100160.66;6264229;20;3690980;-67
2022/11/08 04:09:52;;;;;;;;;106.00;84.33;;;;;4.23;100.00;100153.44;6263134;20;3694014;-67
2022/11/08 04:15:15;;;;;;;;;93.00;71.33;;;;;4.06;100.00;100151.25;6263919;20;3681600;-70
2022/11/08 04:23:35;;;;;;;;;77.00;57.00;;;;;4.34;100.00;100156.66;6301087;20;3649184;-69
2022/11/08 04:26:10;;;;;;;;;69.33;51.33;;;;;4.47;100.00;100160.69;6301579;20;3636881;-69
2022/11/08 04:28:41;;;;;;;;;76.33;54.67;;;;;4.52;100.00;100155.25;6298815;20;3656092;-71
2022/11/08 04:31:19;;;;;;;;;76.00;58.67;;;;;4.44;100.00;100158.13;6300398;20;2865046;-69
2022/11/08 04:33:50;;;;;;;;;72.33;54.00;;;;;4.37;100.00;100145.94;6302000;20;3636721;-71
2022/11/08 04:36:20;;;;;;;;;73.33;55.67;;;;;4.49;100.00;100145.59;6301535;20;3636710;-69
2022/11/08 04:38:51;;;;;;;;;69.00;54.00;;;;;4.53;100.00;100149.91;6301443;20;3621196;-70
2022/11/08 04:41:24;;;;;;;;;74.67;55.00;;;;;4.59;100.00;100146.19;6301159;20;3651300;-70
2022/11/08 04:43:56;;;;;;;;;78.67;58.00;;;;;4.58;100.00;100147.09;6301628;20;3635751;-68
2022/11/08 04:46:28;;;;;;;;;74.33;53.33;;;;;4.28;100.00;100138.22;6298810;20;3629521;-68
2022/11/08 04:49:00;;;;;;;;;80.00;60.00;;;;;4.38;100.00;100147.69;6300771;20;3623190;-67
2022/11/08 04:51:32;;;;;;;;;70.00;54.67;;;;;4.12;100.00;100137.78;6299621;20;3611954;-68
2022/11/08 04:54:05;;;;;;;;;65.67;51.33;;;;;4.12;100.00;100146.63;6302463;20;2887849;-70
2022/11/08 04:56:34;;;;;;;;;60.67;46.67;;;;;4.16;100.00;100145.66;6300596;20;2874454;-67
2022/11/08 04:59:03;;;;;;;;;59.50;46.00;;;;;3.87;100.00;100134.91;6296113;20;2871226;-70
2022/11/08 05:01:43;;;;;;;;;70.33;51.67;;;;;4.02;100.00;100142.47;6264145;20;3640912;-68
2022/11/08 05:04:17;;;;;;;;;62.67;48.67;;;;;4.11;100.00;100144.03;6302683;20;3645084;-68
2022/11/08 05:06:47;;;;;;;;;66.67;49.00;;;;;4.08;100.00;100145.00;6300927;20;3630541;-69
2022/11/08 05:09:16;;;;;;;;;64.67;53.00;;;;;3.94;100.00;100147.13;6304025;20;3621104;-69
2022/11/08 05:11:46;;;;;;;;;67.00;50.67;;;;;3.91;100.00;100142.78;6297849;20;3635698;-70
2022/11/08 05:14:15;;;;;;;;;64.67;52.00;;;;;3.93;100.00;100140.09;6298632;20;3631535;-67
2022/11/08 05:16:44;;;;;;;;;60.50;48.50;;;;;4.07;100.00;100147.69;6297127;20;2858615;-66
2022/11/08 05:23:22;;;;;;;;;65.67;50.67;;;;;4.15;100.00;100149.19;6268692;20;2882729;-67
2022/11/08 05:24:51;;;;;;;;;69.00;50.00;;;;;3.98;100.00;100146.16;6300457;20;2894128;-67
2022/11/08 05:27:21;;;;;;;;;74.00;53.00;;;;;4.09;100.00;100144.06;6295525;20;3644009;-68
2022/11/08 05:29:49;;;;;;;;;75.50;60.50;;;;;4.15;100.00;100145.69;6299368;20;2859674;-66
2022/11/08 05:32:19;;;;;;;;;78.00;57.00;;;;;4.14;100.00;100150.13;6268720;20;3637891;-68
2022/11/08 05:34:50;;;;;;;;;70.67;54.00;;;;;4.45;100.00;100157.25;6296611;20;3632566;-67
2022/11/08 05:37:20;;;;;;;;;69.33;54.67;;;;;4.29;100.00;100153.25;6302710;20;3630599;-68
2022/11/08 05:39:50;;;;;;;;;72.00;52.67;;;;;4.36;100.00;100165.47;6300207;20;3632457;-67
2022/11/08 05:42:19;;;;;;;;;60.00;48.00;;;;;4.45;100.00;100165.22;6298745;20;2865054;-68
2022/11/08 05:44:48;;;;;;;;;61.33;46.67;;;;;4.45;100.00;100167.88;6267100;20;2878673;-67
2022/11/08 05:47:16;;;;;;;;;52.50;44.50;;;;;4.30;100.00;100170.97;6300152;20;2500344;-67
2022/11/08 05:49:45;;;;;;;;;58.50;46.50;;;;;4.28;100.00;100160.38;6269098;20;2859764;-68
2022/11/08 05:52:14;;;;;;;;;54.50;46.00;;;;;4.53;100.00;100165.88;6271716;20;2863979;-66
2022/11/08 05:54:52;;;;;;;;;60.33;46.33;;;;;4.61;100.00;100169.16;6271537;20;3626343;-68
2022/11/08 05:57:22;;;;;;;;;61.00;45.67;;;;;4.71;100.00;100160.91;6300893;20;2885803;-66
2022/11/08 05:59:51;;;;;;;;;63.33;48.33;;;;;4.89;100.00;100170.13;6296361;20;2871177;-67
2022/11/08 06:02:21;;;;;;;;;55.00;46.00;;;;;4.92;100.00;100170.88;6298011;20;2864987;-67
2022/11/08 06:04:51;;;;;;;;;63.00;50.33;;;;;5.02;100.00;100183.00;6297521;20;2881731;-67
2022/11/08 06:07:20;;;;;;;;;64.00;50.67;;;;;4.95;100.00;100173.47;6299830;20;2883659;-67
2022/11/08 06:09:50;;;;;;;;;66.33;51.67;;;;;4.85;100.00;100190.63;6301682;20;3633768;-67
2022/11/08 06:12:23;;;;;;;;;71.00;53.00;;;;;4.78;100.00;100189.06;6303004;20;3637796;-65
2022/11/08 06:14:51;;;;;;;;;56.00;48.00;;;;;4.97;100.00;100198.22;6301027;20;2854617;-65
2022/11/08 06:17:21;;;;;;;;;62.33;47.67;;;;;4.99;100.00;100196.41;6263162;20;3644230;-66
2022/11/08 06:19:57;;;;;;;;;66.00;47.67;;;;;4.91;100.00;100203.75;6303123;20;3629423;-65
2022/11/08 06:22:31;;;;;;;;;64.00;49.67;;;;;4.87;100.00;100202.13;6298837;20;3612768;-66
2022/11/08 06:25:01;;;;;;;;;65.00;48.33;;;;;4.96;100.00;100199.16;6297003;20;3643010;-66
2022/11/08 06:27:31;;;;;;;;;65.67;52.33;;;;;5.09;100.00;100201.47;6296563;20;2883806;-67
2022/11/08 06:30:01;;;;;;;;;65.33;53.33;;;;;5.11;100.00;100196.94;6300947;20;2863941;-65
2022/11/08 06:32:31;;;;;;;;;62.00;46.00;;;;;4.89;100.00;100202.91;6297723;20;3623863;-67
2022/11/08 06:35:00;;;;;;;;;66.00;49.00;;;;;4.79;100.00;100212.06;6298882;20;2817093;-68
2022/11/08 06:37:29;;;;;;;;;58.33;46.00;;;;;4.99;100.00;100199.06;6269018;20;2870204;-67
2022/11/08 06:39:58;;;;;;;;;27.67;21.33;;;;;4.96;100.00;100211.59;6300335;20;3552475;-67
2022/11/08 06:42:27;;;;;;;;;52.50;40.00;;;;;4.99;100.00;100214.16;6295892;20;2851430;-67
2022/11/08 06:44:56;;;;;;;;;61.00;44.67;;;;;4.99;100.00;100215.03;6269876;20;2876409;-67
2022/11/08 06:47:25;;;;;;;;;58.00;46.00;;;;;5.12;100.00;100217.31;6297896;20;2852440;-66
2022/11/08 06:49:54;;;;;;;;;47.50;39.50;;;;;5.22;100.00;100216.13;6267138;20;2852584;-67
2022/11/08 06:52:24;;;;;;;;;66.67;51.00;;;;;5.31;100.00;100221.16;6270138;20;3644145;-66
2022/11/08 06:54:52;;;;;;;;;58.00;46.00;;;;;5.46;100.00;100225.13;6297989;20;2864801;-66
2022/11/08 06:57:22;;;;;;;;;57.33;45.33;;;;;5.40;100.00;100223.53;6264556;20;2868171;-67
2022/11/08 06:59:51;;;;;;;;;56.00;44.00;;;;;5.39;100.00;100224.44;6296920;20;3614837;-67
2022/11/08 07:02:20;;;;;;;;;55.50;45.00;;;;;5.31;100.00;100231.78;6297103;20;2860783;-66
2022/11/08 07:04:49;;;;;;;;;48.50;38.00;;;;;5.19;100.00;100232.19;6265116;20;2851448;-66
2022/11/08 07:07:18;;;;;;;;;46.00;38.50;;;;;5.31;100.00;100242.44;6269488;20;2848246;-66
2022/11/08 07:09:47;;;;;;;;;55.00;42.00;;;;;5.50;100.00;100230.31;6269021;20;2873397;-65
2022/11/08 07:12:20;;;;;;;;;40.33;35.33;;;;;5.42;100.00;100234.97;6293013;20;2870243;-66
2022/11/08 07:14:49;;;;;;;;;79.33;63.00;;;;;5.53;100.00;100236.44;6299938;20;3621087;-66
2022/11/08 07:17:19;;;;;;;;;160.33;139.00;;;;;5.39;100.00;100221.78;6296070;20;3732617;-67
2022/11/08 07:19:49;;;;;;;;;127.75;109.75;;;;;5.59;100.00;100230.94;6266295;20;4477397;-64
2022/11/08 07:22:19;;;;;;;;;127.75;106.75;;;;;5.80;100.00;100230.22;6267463;20;4479566;-66
2022/11/08 07:24:49;;;;;;;;;51.67;39.00;;;;;5.48;100.00;100234.81;6262893;20;3593021;-65
2022/11/08 07:27:18;;;;;;;;;71.67;52.67;;;;;5.56;100.00;100231.03;6292680;20;3653575;-65
2022/11/08 07:29:48;;;;;;;;;69.33;53.00;;;;;5.99;100.00;100233.16;6294642;20;3629597;-68
2022/11/08 07:32:18;;;;;;;;;53.00;40.67;;;;;5.72;100.00;100242.94;6297979;20;3613042;-68
2022/11/08 07:34:53;;;;;;;;;67.00;50.00;;;;;6.03;100.00;100231.25;6300391;20;3624343;-69
2022/11/08 07:37:22;;;;;;;;;72.33;54.00;;;;;5.68;100.00;100235.94;6266757;20;3631657;-65
2022/11/08 07:39:58;;;;;;;;;53.00;44.50;;;;;5.85;100.00;100232.75;6298291;20;2850448;-67
2022/11/08 07:42:35;;;;;;;;;57.67;45.67;;;;;5.85;100.00;100246.94;6265509;20;3613006;-68
2022/11/08 07:45:24;;;;;;;;;56.00;42.00;;;;;6.28;100.00;100242.81;6298235;20;2866967;-68
2022/11/08 07:48:04;;;;;;;;;56.67;43.00;;;;;5.94;100.00;100235.97;6263614;20;3608588;-65
2022/11/08 07:50:42;;;;;;;;;132.00;98.00;;;;;6.04;100.00;100238.34;6292932;20;1938928;-67
2022/11/08 07:53:12;;;;;;;;;62.00;45.00;;;;;6.08;100.00;100239.97;6267571;20;2876484;-67
2022/11/08 07:55:42;;;;;;;;;59.67;40.00;;;;;5.78;100.00;100242.72;6304563;20;3632535;-66
2022/11/08 07:58:13;;;;;;;;;93.33;76.00;;;;;5.79;100.00;100238.25;6300112;20;3667936;-67
2022/11/08 08:00:44;;;;;;;;;72.00;53.33;;;;;6.05;100.00;100242.75;6265784;20;3645033;-66
2022/11/08 08:03:14;;;;;;;;;58.00;42.67;;;;;6.29;100.00;100233.91;6301901;20;2870147;-68
2022/11/08 08:05:52;;;;;;;;;57.33;42.00;;;;;6.57;100.00;100231.13;6300139;20;3629445;-65
2022/11/08 08:08:29;;;;;;;;;58.33;44.00;;;;;6.53;100.00;100241.94;6303021;20;2862853;-69
2022/11/08 08:11:02;;;;;;;;;60.33;42.33;;;;;6.36;100.00;100248.75;6303965;20;3614897;-67
2022/11/08 08:13:31;;;;;;;;;197.00;182.00;;;;;6.43;100.00;100252.09;6304119;20;4492965;-68
2022/11/08 08:16:02;;;;;;;;;59.67;44.67;;;;;6.08;100.00;100242.63;6269930;20;3613889;-65
2022/11/08 08:18:31;;;;;;;;;56.00;39.67;;;;;6.29;100.00;100241.91;6302027;20;3611749;-67
2022/11/08 08:21:01;;;;;;;;;73.33;53.67;;;;;6.54;100.00;100249.03;6304653;20;3650395;-65
2022/11/08 08:23:34;;;;;;;;;96.00;76.50;;;;;6.66;100.00;100248.59;6302856;20;4447085;-66
2022/11/08 08:26:03;;;;;;;;;56.67;44.00;;;;;6.69;100.00;100240.47;6307181;20;3607542;-67
2022/11/08 08:28:33;;;;;;;;;58.00;43.00;;;;;6.44;100.00;100248.50;6302099;20;3622157;-67
2022/11/08 08:31:05;;;;;;;;;61.33;40.33;;;;;6.25;100.00;100250.06;6301662;20;3637815;-66
2022/11/08 08:33:36;;;;;;;;;62.33;41.67;;;;;6.65;100.00;100235.31;6301395;20;3631656;-67
2022/11/08 08:36:07;;;;;;;;;64.33;42.33;;;;;6.31;100.00;100234.72;6304112;20;3632997;-67
2022/11/08 08:38:39;;;;;;;;;62.67;42.00;;;;;6.40;100.00;100238.88;6300060;20;3611782;-66
2022/11/08 08:41:15;;;;;;;;;54.33;39.00;;;;;6.72;100.00;100245.72;6305070;20;3595139;-66
2022/11/08 08:43:48;;;;;;;;;64.67;46.67;;;;;6.57;100.00;100235.59;6303224;20;3637785;-67
2022/11/08 08:46:18;;;;;;;;;55.00;43.00;;;;;6.70;100.00;100252.88;6303729;20;3600299;-65
2022/11/08 08:48:48;;;;;;;;;56.00;39.67;;;;;6.90;100.00;100251.28;6303343;20;2861902;-67
2022/11/08 08:51:18;;;;;;;;;58.00;42.00;;;;;6.53;100.00;100258.84;6305663;20;3619191;-66
2022/11/08 08:53:48;;;;;;;;;34.00;26.00;;;;;6.75;100.00;100256.25;6301857;20;2823209;-66
2022/11/08 08:56:18;;;;;;;;;59.33;41.33;;;;;6.88;100.00;100269.16;6273325;20;3621093;-65
2022/11/08 08:58:48;;;;;;;;;54.50;42.00;;;;;6.82;100.00;100264.94;6303928;20;2867059;-67
2022/11/08 09:01:37;;;;;;;;;51.00;40.33;;;;;6.84;100.00;100270.19;6268883;20;2859721;-66
2022/11/08 09:04:07;;;;;;;;;60.00;44.67;;;;;7.14;100.00;100269.06;6296784;20;3611828;-67
2022/11/08 09:06:37;;;;;;;;;55.33;41.33;;;;;6.91;100.00;100272.59;6294558;20;3624358;-68
2022/11/08 09:09:06;;;;;;;;;51.00;37.00;;;;;7.14;100.00;100270.84;6299572;20;2868016;-67
2022/11/08 09:11:37;;;;;;;;;63.00;44.67;;;;;7.24;100.00;100275.78;6302427;20;3636715;-66
2022/11/08 09:14:05;;;;;;;;;42.00;33.50;;;;;7.47;100.00;100279.34;6302389;20;2855471;-67
2022/11/08 09:16:35;;;;;;;;;58.33;42.00;;;;;7.16;100.00;100274.31;6267875;20;3646252;-67
2022/11/08 09:19:05;;;;;;;;;57.67;40.67;;;;;7.01;100.00;100275.78;6302717;20;3622157;-66
2022/11/08 09:21:34;;;;;;;;;63.33;47.00;;;;;7.22;100.00;100290.13;6300900;20;3637783;-66
2022/11/08 09:24:05;;;;;;;;;112.67;91.67;;;;;7.58;100.00;100292.28;6305587;20;3715871;-66
2022/11/08 09:26:35;;;;;;;;;113.00;95.00;;;;;7.15;100.00;100289.47;6271781;20;3692982;-67
2022/11/08 09:29:04;;;;;;;;;54.00;39.67;;;;;7.06;100.00;100284.50;6268099;20;2871179;-66
2022/11/08 09:31:34;;;;;;;;;54.67;43.67;;;;;7.46;100.00;100282.97;6302373;20;2862895;-68
2022/11/08 09:34:03;;;;;;;;;52.00;41.33;;;;;7.63;100.00;100290.31;6301100;20;2860758;-67
2022/11/08 09:36:33;;;;;;;;;61.67;46.33;;;;;7.53;100.00;100284.47;6302073;20;3634713;-67
2022/11/08 09:39:03;;;;;;;;;56.67;43.67;;;;;7.48;100.00;100286.44;6303926;20;2863945;-67
2022/11/08 09:41:49;;;;;;;;;60.00;43.33;;;;;7.38;100.00;100293.09;6298926;20;3628382;-68
2022/11/08 09:44:47;;;;;;;;;56.67;43.00;;;;;7.55;100.00;100287.06;6300480;20;2861829;-67
2022/11/08 09:47:38;;;;;;;;;64.33;47.33;;;;;7.43;100.00;100272.41;6302951;20;3631480;-68
2022/11/08 09:50:43;;;;;;;;;91.67;68.00;;;;;7.59;100.00;100283.34;6300830;20;3671116;-66
2022/11/08 09:53:19;;;;;;;;;61.67;44.00;;;;;7.62;100.00;100284.09;6263296;20;3636723;-69
2022/11/08 09:56:04;;;;;;;;;59.00;45.67;;;;;7.54;100.00;100275.50;6295823;20;3615977;-67
2022/11/08 09:59:20;;;;;;;;;51.00;42.00;;;;;7.58;100.00;100277.16;6299109;20;2840891;-66
2022/11/08 10:01:49;;;;;;;;;51.50;39.50;;;;;7.75;100.00;100278.25;6269347;20;2859698;-66
2022/11/08 10:04:27;;;;;;;;;65.33;50.00;;;;;7.94;100.00;100279.25;6269549;20;3625361;-67
2022/11/08 10:07:42;;;;;;;;;70.67;53.67;;;;;7.98;100.00;100285.31;6300915;20;3612763;-68
2022/11/08 10:10:35;;;;;;;;;42.33;38.67;;;;;8.28;100.00;100278.69;6306624;20;3586749;-67
2022/11/08 10:13:27;;;;;;;;;106.50;95.00;;;;;8.18;100.00;100271.13;6260959;20;1946320;-66
2022/11/08 10:16:19;;;;;;;;;52.33;40.67;;;;;8.34;100.00;100275.75;6270715;20;3611866;-67
2022/11/08 10:19:14;;;;;;;;;52.00;38.00;;;;;8.09;100.00;100265.25;6273673;20;2844043;-68
2022/11/08 10:22:11;;;;;;;;;66.33;51.00;;;;;8.20;100.00;100254.09;6268241;20;3630579;-68
2022/11/08 10:24:56;;;;;;;;;158.00;130.50;;;;;7.79;100.00;100254.00;6266096;20;1945189;-67
2022/11/08 10:27:42;;;;;;;;;85.75;68.50;;;;;8.28;100.00;100254.63;6267623;20;4425333;-67
2022/11/08 10:30:31;;;;;;;;;273.67;213.33;;;;;8.34;100.00;100250.81;6301947;20;3708658;-67
2022/11/08 10:33:20;;;;;;;;;479.60;362.80;;;;;7.97;100.00;100252.38;6267738;20;4558114;-67
2022/11/08 10:36:10;;;;;;;;;56.67;47.00;;;;;8.24;100.00;100253.03;6300395;20;3609679;-66
2022/11/08 10:39:10;;;;;;;;;66.00;51.33;;;;;8.43;100.00;100261.16;6267447;20;3630610;-67
2022/11/08 10:42:20;;;;;;;;;61.67;49.67;;;;;8.10;100.00;100250.91;6298624;20;2855764;-67
2022/11/08 10:44:50;;;;;;;;;60.67;47.67;;;;;8.25;100.00;100244.06;6299430;20;3639927;-67
2022/11/08 10:47:28;;;;;;;;;66.67;49.00;;;;;8.31;100.00;100241.09;6296710;20;3644025;-67
2022/11/08 10:49:59;;;;;;;;;65.00;52.00;;;;;8.47;100.00;100240.47;6268349;20;3625245;-66
2022/11/08 10:53:00;;;;;;;;;61.33;47.00;;;;;8.45;100.00;100245.91;6300357;20;3632863;-67
2022/11/08 10:55:37;;;;;;;;;54.67;38.00;;;;;8.49;100.00;100243.97;6298838;20;3637800;-68
2022/11/08 10:58:35;;;;;;;;;69.67;52.00;;;;;7.94;100.00;100241.81;6298988;20;3615904;-67
2022/11/08 11:01:17;;;;;;;;;53.50;40.00;;;;;8.62;100.00;100249.66;6300401;20;2483689;-68
2022/11/08 11:03:50;;;;;;;;;71.67;52.33;;;;;8.78;100.00;100250.69;6264797;20;3645170;-68
2022/11/08 11:06:32;;;;;;;;;72.00;54.67;;;;;8.81;100.00;100244.34;6301859;20;3623368;-69
2022/11/08 11:09:22;;;;;;;;;64.33;49.33;;;;;8.92;100.00;100237.53;6268671;20;3630572;-69
2022/11/08 11:12:08;;;;;;;;;63.00;50.33;;;;;8.82;100.00;100236.25;6298658;20;3622158;-68
2022/11/08 11:14:39;;;;;;;;;57.00;48.00;;;;;8.83;100.00;100240.66;6299882;20;3622349;-68
2022/11/08 11:17:18;;;;;;;;;67.00;50.00;;;;;8.86;100.00;100248.53;6300464;20;3639863;-68
2022/11/08 11:19:56;;;;;;;;;61.00;49.33;;;;;8.73;100.00;100239.31;6300050;20;3617997;-68
2022/11/08 11:22:34;;;;;;;;;60.00;48.33;;;;;8.33;100.00;100233.88;6299924;20;3631517;-68
2022/11/08 11:25:22;;;;;;;;;57.67;47.67;;;;;8.46;100.00;100228.91;6300989;20;3618067;-68
2022/11/08 11:27:57;;;;;;;;;62.67;47.67;;;;;8.48;100.00;100235.06;6304111;20;3629570;-68
2022/11/08 11:30:35;;;;;;;;;64.00;49.00;;;;;8.67;100.00;100228.91;6307068;20;3631621;-68
2022/11/08 11:33:28;;;;;;;;;84.67;67.00;;;;;8.77;100.00;100239.13;6303260;20;3664872;-68
2022/11/08 11:36:11;;;;;;;;;79.00;61.67;;;;;9.04;100.00;100235.25;6273421;20;3644029;-68
2022/11/08 11:39:05;;;;;;;;;63.67;47.00;;;;;9.01;100.00;100230.91;6270783;20;3652466;-69
2022/11/08 11:42:05;;;;;;;;;62.00;46.00;;;;;8.80;100.00;100230.06;6275865;20;3643998;-67
2022/11/08 11:45:26;;;;;;;;;71.00;51.00;;;;;8.84;100.00;100230.78;6303579;20;3643060;-69